createdAt,value
2023-04-03T00:01:12.968Z,96835.53
2023-04-03T00:03:42.329Z,96825.50
2023-04-03T00:06:12.026Z,96821.63
2023-04-03T00:08:41.410Z,96826.94
2023-04-03T00:11:10.692Z,96830.66
2023-04-03T00:13:40.366Z,96828.19
2023-04-03T00:16:09.734Z,96831.47
2023-04-03T00:18:38.489Z,96840.47
2023-04-03T00:21:07.101Z,96827.34
2023-04-03T00:23:35.650Z,96817.56
2023-04-03T00:26:03.682Z,96813.03
2023-04-03T00:28:31.478Z,96829.00
2023-04-03T00:31:00.793Z,96829.00
2023-04-03T00:33:28.745Z,96827.38
2023-04-03T00:35:56.638Z,96830.00
2023-04-03T00:38:24.728Z,96824.50
2023-04-03T00:40:52.547Z,96840.03
2023-04-03T00:43:22.642Z,96841.06
2023-04-03T00:45:52.791Z,96829.78
2023-04-03T00:48:24.926Z,96825.91
2023-04-03T00:50:52.583Z,96831.47
2023-04-03T00:53:24.435Z,96826.13
2023-04-03T00:55:54.204Z,96841.69
2023-04-03T00:58:26.405Z,96832.25
2023-04-03T01:01:00.276Z,96833.44
2023-04-03T01:03:29.457Z,96831.63
2023-04-03T01:05:57.239Z,96843.47
2023-04-03T01:08:25.411Z,96829.66
2023-04-03T01:10:53.263Z,96841.94
2023-04-03T01:13:27.465Z,96849.31
2023-04-03T01:15:55.420Z,96843.03
2023-04-03T01:18:24.202Z,96845.94
2023-04-03T01:21:13.248Z,96836.13
2023-04-03T01:23:55.394Z,96833.25
2023-04-03T01:26:23.455Z,96846.19
2023-04-03T01:28:51.208Z,96858.22
2023-04-03T01:31:27.252Z,96851.22
2023-04-03T01:33:57.325Z,96852.75
2023-04-03T01:36:27.599Z,96854.75
2023-04-03T01:38:55.907Z,96856.53
2023-04-03T01:41:23.785Z,96858.56
2023-04-03T01:43:51.910Z,96861.50
2023-04-03T01:46:20.886Z,96848.25
2023-04-03T01:48:49.272Z,96851.75
2023-04-03T01:51:18.574Z,96863.28
2023-04-03T01:53:46.346Z,96854.63
2023-04-03T01:56:14.198Z,96864.16
2023-04-03T01:58:42.310Z,96871.88
2023-04-03T02:01:10.147Z,96871.34
2023-04-03T02:03:38.061Z,96865.63
2023-04-03T02:06:06.426Z,96866.31
2023-04-03T02:08:35.601Z,96873.22
2023-04-03T02:11:03.583Z,96876.06
2023-04-03T02:13:31.361Z,96879.56
2023-04-03T02:16:00.095Z,96876.91
2023-04-03T02:18:27.952Z,96870.75
2023-04-03T02:20:55.771Z,96857.59
2023-04-03T02:23:23.481Z,96870.34
2023-04-03T02:25:52.612Z,96873.97
2023-04-03T02:28:20.464Z,96866.75
2023-04-03T02:30:48.538Z,96871.44
2023-04-03T02:33:16.339Z,96864.31
2023-04-03T02:35:44.183Z,96873.59
2023-04-03T02:38:12.007Z,96876.06
2023-04-03T02:40:40.061Z,96870.63
2023-04-03T02:43:09.520Z,96873.06
2023-04-03T02:45:37.271Z,96867.41
2023-04-03T02:48:06.629Z,96873.53
2023-04-03T02:50:34.897Z,96880.00
2023-04-03T02:53:03.248Z,96869.16
2023-04-03T02:55:30.977Z,96870.78
2023-04-03T02:57:58.726Z,96869.56
2023-04-03T03:00:27.929Z,96867.09
2023-04-03T03:02:55.811Z,96872.91
2023-04-03T03:05:23.943Z,96876.69
2023-04-03T03:07:52.230Z,96877.47
2023-04-03T03:10:20.072Z,96870.41
2023-04-03T03:12:48.370Z,96865.72
2023-04-03T03:15:16.537Z,96873.50
2023-04-03T03:17:46.004Z,96882.25
2023-04-03T03:20:15.627Z,96878.72
2023-04-03T03:22:43.507Z,96882.06
2023-04-03T03:25:11.478Z,96883.09
2023-04-03T03:27:39.476Z,96871.66
2023-04-03T03:30:08.823Z,96880.50
2023-04-03T03:32:36.714Z,96870.91
2023-04-03T03:35:06.594Z,96870.78
2023-04-03T03:37:34.362Z,96878.28
2023-04-03T03:40:02.072Z,96875.72
2023-04-03T03:42:30.060Z,96867.69
2023-04-03T03:44:58.128Z,96882.91
2023-04-03T03:47:26.792Z,96889.41
2023-04-03T03:49:54.656Z,96876.38
2023-04-03T03:52:24.317Z,96877.44
2023-04-03T03:54:52.113Z,96883.75
2023-04-03T03:57:20.067Z,96884.41
2023-04-03T03:59:48.538Z,96884.78
2023-04-03T04:02:17.422Z,96888.66
2023-04-03T04:04:45.683Z,96888.13
2023-04-03T04:07:13.461Z,96902.19
2023-04-03T04:09:42.758Z,96902.94
2023-04-03T04:12:10.930Z,96896.44
2023-04-03T04:14:38.745Z,96890.97
2023-04-03T04:17:07.642Z,96891.81
2023-04-03T04:19:35.523Z,96892.38
2023-04-03T04:22:03.263Z,96887.72
2023-04-03T04:24:30.964Z,96893.28
2023-04-03T04:27:00.352Z,96900.31
2023-04-03T04:29:28.216Z,96892.75
2023-04-03T04:31:55.981Z,96895.28
2023-04-03T04:34:23.779Z,96899.03
2023-04-03T04:36:51.746Z,96899.09
2023-04-03T04:39:19.688Z,96903.94
2023-04-03T04:41:47.569Z,96898.28
2023-04-03T04:44:16.967Z,96909.31
2023-04-03T04:46:44.741Z,96906.97
2023-04-03T04:49:12.489Z,96906.06
2023-04-03T04:51:51.201Z,96902.41
2023-04-03T04:54:20.130Z,96900.31
2023-04-03T04:56:47.970Z,96904.34
2023-04-03T04:59:17.934Z,96902.56
2023-04-03T05:01:47.193Z,96905.53
2023-04-03T05:04:15.014Z,96910.28
2023-04-03T05:06:43.554Z,96919.41
2023-04-03T05:09:12.013Z,96918.59
2023-04-03T05:11:39.776Z,96898.97
2023-04-03T05:14:07.908Z,96917.28
2023-04-03T05:16:37.317Z,96916.88
2023-04-03T05:19:05.861Z,96926.78
2023-04-03T05:21:33.929Z,96932.19
2023-04-03T05:24:03.672Z,96937.47
2023-04-03T05:26:31.859Z,96938.47
2023-04-03T05:29:00.383Z,96931.94
2023-04-03T05:31:30.462Z,96942.19
2023-04-03T05:34:00.070Z,96939.09
2023-04-03T05:36:28.035Z,96945.22
2023-04-03T05:38:57.347Z,96949.59
2023-04-03T05:41:25.811Z,96959.66
2023-04-03T05:43:53.681Z,96943.03
2023-04-03T05:46:23.339Z,96947.16
2023-04-03T05:48:51.889Z,96953.28
2023-04-03T05:51:24.094Z,96953.91
2023-04-03T05:53:57.138Z,96954.34
2023-04-03T05:56:25.240Z,96955.75
2023-04-03T05:58:53.117Z,96956.09
2023-04-03T06:01:20.969Z,96956.38
2023-04-03T06:03:48.865Z,96962.84
2023-04-03T06:06:16.870Z,96951.53
2023-04-03T06:08:47.082Z,96964.41
2023-04-03T06:11:14.874Z,96971.97
2023-04-03T06:13:42.848Z,96967.78
2023-04-03T06:16:11.787Z,96971.91
2023-04-03T06:18:39.565Z,96973.66
2023-04-03T06:21:08.747Z,96974.16
2023-04-03T06:23:36.589Z,96983.50
2023-04-03T06:26:06.797Z,96973.25
2023-04-03T06:28:34.649Z,96972.19
2023-04-03T06:31:02.426Z,96972.06
2023-04-03T06:33:30.221Z,96979.28
2023-04-03T06:35:59.666Z,96968.88
2023-04-03T06:38:27.624Z,96971.63
2023-04-03T06:40:55.557Z,96962.59
2023-04-03T06:43:25.450Z,96962.75
2023-04-03T06:45:53.345Z,96962.22
2023-04-03T06:48:22.005Z,96965.97
2023-04-03T06:50:49.788Z,96962.09
2023-04-03T06:53:17.706Z,96969.03
2023-04-03T06:55:46.158Z,96956.38
2023-04-03T06:58:14.934Z,96965.31
2023-04-03T07:00:44.378Z,96968.13
2023-04-03T07:03:12.201Z,96972.25
2023-04-03T07:05:40.661Z,96970.44
2023-04-03T07:08:08.735Z,96965.59
2023-04-03T07:10:37.315Z,96970.63
2023-04-03T07:13:05.359Z,96967.63
2023-04-03T07:15:33.229Z,96969.69
2023-04-03T07:18:02.586Z,96976.47
2023-04-03T07:20:30.496Z,96966.84
2023-04-03T07:22:58.240Z,96975.47
2023-04-03T07:25:26.374Z,96975.38
2023-04-03T07:27:55.409Z,96979.81
2023-04-03T07:30:23.471Z,96975.19
2023-04-03T07:32:52.499Z,96970.09
2023-04-03T07:35:21.848Z,96985.06
2023-04-03T07:37:49.600Z,96981.66
2023-04-03T07:40:19.065Z,96987.53
2023-04-03T07:42:47.631Z,96993.44
2023-04-03T07:45:15.962Z,96989.06
2023-04-03T07:47:43.827Z,96987.13
2023-04-03T07:50:12.020Z,96977.09
2023-04-03T07:52:41.715Z,96967.50
2023-04-03T07:55:10.342Z,96984.56
2023-04-03T07:57:38.476Z,96984.06
2023-04-03T08:00:07.807Z,96986.84
2023-04-03T08:02:35.836Z,96977.97
2023-04-03T08:05:03.673Z,96978.41
2023-04-03T08:07:31.535Z,96975.47
2023-04-03T08:10:00.718Z,96975.72
2023-04-03T08:12:29.562Z,96980.56
2023-04-03T08:14:57.521Z,96985.47
2023-04-03T08:17:25.465Z,96980.16
2023-04-03T08:19:53.267Z,96976.13
2023-04-03T08:22:21.269Z,96979.16
2023-04-03T08:24:58.515Z,96979.34
2023-04-03T08:27:29.918Z,96977.25
2023-04-03T08:29:58.134Z,96976.88
2023-04-03T08:32:26.773Z,96973.88
2023-04-03T08:34:54.825Z,96983.69
2023-04-03T08:37:22.555Z,96973.63
2023-04-03T08:39:51.008Z,96979.47
2023-04-03T08:42:35.510Z,96978.06
2023-04-03T08:45:12.824Z,96971.88
2023-04-03T08:47:45.835Z,96970.19
2023-04-03T08:50:16.841Z,96983.34
2023-04-03T08:52:48.389Z,96992.09
2023-04-03T08:55:26.117Z,96991.09
2023-04-03T08:58:01.971Z,96993.59
2023-04-03T09:00:47.451Z,96981.75
2023-04-03T09:03:17.092Z,96998.59
2023-04-03T09:05:49.813Z,96985.16
2023-04-03T09:08:25.250Z,96987.69
2023-04-03T09:10:59.648Z,96991.13
2023-04-03T09:13:35.618Z,96985.31
2023-04-03T09:16:16.165Z,96984.47
2023-04-03T09:18:48.505Z,96991.75
2023-04-03T09:21:22.812Z,96985.34
2023-04-03T09:23:53.839Z,96989.50
2023-04-03T09:26:27.006Z,96984.78
2023-04-03T09:28:59.956Z,96985.84
2023-04-03T09:31:40.781Z,96993.44
2023-04-03T09:34:16.554Z,96993.69
2023-04-03T09:36:46.183Z,96987.13
2023-04-03T09:39:16.993Z,96989.69
2023-04-03T09:41:58.788Z,96980.31
2023-04-03T09:44:29.268Z,96992.09
2023-04-03T09:46:58.576Z,97004.34
2023-04-03T09:49:26.591Z,96999.22
2023-04-03T09:51:55.068Z,96994.91
2023-04-03T09:54:32.419Z,97002.19
2023-04-03T09:57:06.187Z,96999.88
2023-04-03T09:59:34.975Z,96995.53
2023-04-03T10:02:07.258Z,96994.38
2023-04-03T10:04:41.649Z,96999.97
2023-04-03T10:07:31.944Z,97013.22
2023-04-03T10:10:01.011Z,97000.97
2023-04-03T10:12:28.820Z,96995.81
2023-04-03T10:14:58.404Z,96997.91
2023-04-03T10:17:41.455Z,97001.56
2023-04-03T10:20:24.405Z,96999.28
2023-04-03T10:23:04.061Z,96989.88
2023-04-03T10:25:37.736Z,96992.31
2023-04-03T10:28:10.285Z,96990.09
2023-04-03T10:30:48.440Z,96988.69
2023-04-03T10:33:35.009Z,96982.38
2023-04-03T10:36:12.893Z,96981.34
2023-04-03T10:38:48.933Z,96982.41
2023-04-03T10:41:24.275Z,96979.09
2023-04-03T10:44:01.226Z,96982.47
2023-04-03T10:46:35.090Z,96976.28
2023-04-03T10:49:16.643Z,96981.44
2023-04-03T10:51:47.259Z,96979.06
2023-04-03T10:54:23.745Z,96977.63
2023-04-03T10:57:08.600Z,96972.03
2023-04-03T10:59:46.931Z,96969.25
2023-04-03T11:02:21.642Z,96965.38
2023-04-03T11:04:55.842Z,96972.53
2023-04-03T11:07:26.101Z,96964.16
2023-04-03T11:09:57.708Z,96961.66
2023-04-03T11:12:30.251Z,96964.84
2023-04-03T11:14:59.240Z,96951.94
2023-04-03T11:17:34.129Z,96959.34
2023-04-03T11:20:09.320Z,96966.47
2023-04-03T11:22:41.941Z,96958.97
2023-04-03T11:25:23.006Z,96961.34
2023-04-03T11:27:56.948Z,96955.31
2023-04-03T11:30:30.037Z,96954.41
2023-04-03T11:33:26.004Z,96955.38
2023-04-03T11:36:00.205Z,96956.03
2023-04-03T11:38:31.899Z,96956.50
2023-04-03T11:41:01.156Z,96952.59
2023-04-03T11:43:32.655Z,96952.47
2023-04-03T11:46:02.051Z,96948.31
2023-04-03T11:48:49.946Z,96953.44
2023-04-03T11:51:44.753Z,96954.63
2023-04-03T11:54:50.664Z,96952.06
2023-04-03T11:57:48.309Z,96947.53
2023-04-03T12:00:51.680Z,96943.25
2023-04-03T12:03:47.369Z,96943.28
2023-04-03T12:06:55.877Z,96935.47
2023-04-03T12:09:46.458Z,96935.66
2023-04-03T12:12:30.092Z,96939.94
2023-04-03T12:15:13.399Z,96942.63
2023-04-03T12:17:41.330Z,96928.66
2023-04-03T12:20:42.712Z,96927.25
2023-04-03T12:23:26.217Z,96926.44
2023-04-03T12:26:02.675Z,96913.34
2023-04-03T12:28:31.015Z,96927.28
2023-04-03T12:30:59.841Z,96920.31
2023-04-03T12:33:41.573Z,96920.94
2023-04-03T12:36:13.728Z,96918.28
2023-04-03T12:39:06.374Z,96922.75
2023-04-03T12:41:40.967Z,96922.16
2023-04-03T12:44:27.206Z,96904.34
2023-04-03T12:46:56.091Z,96914.78
2023-04-03T12:49:37.941Z,96914.41
2023-04-03T12:52:20.988Z,96914.59
2023-04-03T12:54:51.797Z,96915.41
2023-04-03T12:57:20.978Z,96914.59
2023-04-03T12:59:49.534Z,96919.69
2023-04-03T13:02:25.514Z,96916.03
2023-04-03T13:04:55.314Z,96908.66
2023-04-03T13:07:26.705Z,96891.63
2023-04-03T13:10:03.016Z,96910.69
2023-04-03T13:12:32.339Z,96910.69
2023-04-03T13:15:02.438Z,96899.22
2023-04-03T13:17:30.356Z,96895.69
2023-04-03T13:20:12.871Z,96901.75
2023-04-03T13:22:45.086Z,96895.59
2023-04-03T13:25:16.968Z,96902.28
2023-04-03T13:27:45.860Z,96887.97
2023-04-03T13:30:31.891Z,96895.72
2023-04-03T13:33:02.371Z,96894.91
2023-04-03T13:35:37.204Z,96891.63
2023-04-03T13:38:09.187Z,96894.50
2023-04-03T13:40:50.428Z,96894.91
2023-04-03T13:43:21.798Z,96885.06
2023-04-03T13:45:58.580Z,96889.56
2023-04-03T13:48:26.624Z,96890.81
2023-04-03T13:51:02.109Z,96890.81
2023-04-03T13:53:32.024Z,96894.91
2023-04-03T13:56:08.401Z,96874.44
2023-04-03T13:58:37.682Z,96892.88
2023-04-03T14:01:12.740Z,96876.09
2023-04-03T14:03:45.541Z,96877.72
2023-04-03T14:06:16.435Z,96878.53
2023-04-03T14:08:45.618Z,96883.44
2023-04-03T14:11:17.518Z,96878.94
2023-04-03T14:13:46.400Z,96873.59
2023-04-03T14:16:19.700Z,96874.47
2023-04-03T14:18:49.187Z,96872.72
2023-04-03T14:21:19.093Z,96880.09
2023-04-03T14:23:47.389Z,96871.72
2023-04-03T14:26:19.138Z,96863.13
2023-04-03T14:28:48.596Z,96870.06
2023-04-03T14:31:18.811Z,96868.56
2023-04-03T14:33:47.177Z,96865.31
2023-04-03T14:36:16.616Z,96853.50
2023-04-03T14:38:45.091Z,96852.72
2023-04-03T14:41:16.854Z,96859.06
2023-04-03T14:43:47.718Z,96856.38
2023-04-03T14:46:18.006Z,96856.41
2023-04-03T14:48:46.809Z,96857.44
2023-04-03T14:51:16.704Z,96850.22
2023-04-03T14:53:45.682Z,96866.97
2023-04-03T14:56:15.387Z,96851.81
2023-04-03T14:58:43.636Z,96850.22
2023-04-03T15:01:15.125Z,96855.34
2023-04-03T15:03:43.154Z,96856.78
2023-04-03T15:06:12.453Z,96864.56
2023-04-03T15:08:42.024Z,96854.34
2023-04-03T15:11:09.912Z,96861.28
2023-04-03T15:13:38.054Z,96855.91
2023-04-03T15:16:06.574Z,96859.88
2023-04-03T15:18:40.209Z,96863.34
2023-04-03T15:21:08.085Z,96853.53
2023-04-03T15:23:36.206Z,96858.03
2023-04-03T15:26:05.028Z,96862.75
2023-04-03T15:28:36.067Z,96862.31
2023-04-03T15:31:05.065Z,96870.31
2023-04-03T15:33:33.921Z,96862.03
2023-04-03T15:36:07.712Z,96869.63
2023-04-03T15:38:40.074Z,96880.00
2023-04-03T15:41:08.276Z,96884.22
2023-04-03T15:43:36.391Z,96873.38
2023-04-03T15:46:05.020Z,96866.47
2023-04-03T15:48:33.129Z,96874.31
2023-04-03T15:51:03.255Z,96866.75
2023-04-03T15:53:31.257Z,96876.47
2023-04-03T15:55:58.981Z,96867.25
2023-04-03T15:58:26.898Z,96866.91
2023-04-03T16:00:54.960Z,96855.16
2023-04-03T16:03:23.697Z,96863.41
2023-04-03T16:05:52.408Z,96856.47
2023-04-03T16:08:22.124Z,96861.41
2023-04-03T16:10:50.388Z,96867.25
2023-04-03T16:13:18.154Z,96873.00
2023-04-03T16:15:45.982Z,96875.84
2023-04-03T16:18:15.270Z,96866.44
2023-04-03T16:20:44.651Z,96871.38
2023-04-03T16:23:13.859Z,96872.03
2023-04-03T16:25:47.182Z,96874.44
2023-04-03T16:28:16.419Z,96861.09
2023-04-03T16:30:44.478Z,96868.06
2023-04-03T16:33:13.448Z,96877.06
2023-04-03T16:35:43.027Z,96880.75
2023-04-03T16:38:11.123Z,96876.66
2023-04-03T16:40:38.968Z,96874.69
2023-04-03T16:43:08.198Z,96871.00
2023-04-03T16:45:36.293Z,96878.72
2023-04-03T16:48:04.348Z,96867.88
2023-04-03T16:50:32.232Z,96874.19
2023-04-03T16:53:00.580Z,96870.91
2023-04-03T16:55:28.474Z,96867.81
2023-04-03T16:57:56.301Z,96867.84
2023-04-03T17:00:25.654Z,96855.75
2023-04-03T17:02:53.566Z,96876.66
2023-04-03T17:05:21.550Z,96875.03
2023-04-03T17:07:49.506Z,96877.06
2023-04-03T17:10:17.441Z,96880.53
2023-04-03T17:12:45.481Z,96883.31
2023-04-03T17:15:13.470Z,96882.91
2023-04-03T17:17:42.882Z,96876.19
2023-04-03T17:20:11.843Z,96884.06
2023-04-03T17:22:39.654Z,96886.59
2023-04-03T17:25:08.306Z,96883.09
2023-04-03T17:27:36.464Z,96885.88
2023-04-03T17:30:05.056Z,96876.84
2023-04-03T17:32:32.790Z,96876.47
2023-04-03T17:35:01.969Z,96876.66
2023-04-03T17:37:29.775Z,96879.69
2023-04-03T17:39:57.488Z,96882.53
2023-04-03T17:42:25.352Z,96874.00
2023-04-03T17:44:53.035Z,96867.84
2023-04-03T17:47:20.915Z,96876.47
2023-04-03T17:49:48.669Z,96874.19
2023-04-03T17:52:17.869Z,96880.63
2023-04-03T17:54:46.485Z,96878.16
2023-04-03T17:57:14.320Z,96877.13
2023-04-03T17:59:42.137Z,96877.91
2023-04-03T18:02:09.927Z,96879.19
2023-04-03T18:04:37.749Z,96880.34
2023-04-03T18:07:10.083Z,96876.22
2023-04-03T18:09:40.858Z,96891.25
2023-04-03T18:12:10.433Z,96894.22
2023-04-03T18:14:40.251Z,96890.69
2023-04-03T18:17:08.571Z,96891.53
2023-04-03T18:19:36.855Z,96895.81
2023-04-03T18:22:07.707Z,96876.91
2023-04-03T18:24:36.620Z,96894.81
2023-04-03T18:27:08.516Z,96894.47
2023-04-03T18:29:38.859Z,96894.94
2023-04-03T18:32:10.674Z,96904.34
2023-04-03T18:34:39.092Z,96903.72
2023-04-03T18:37:07.085Z,96897.81
2023-04-03T18:39:34.949Z,96899.44
2023-04-03T18:42:09.846Z,96900.53
2023-04-03T18:44:39.035Z,96901.31
2023-04-03T18:47:07.885Z,96906.94
2023-04-03T18:49:39.767Z,96904.66
2023-04-03T18:52:07.514Z,96903.19
2023-04-03T18:54:37.306Z,96890.19
2023-04-03T18:57:06.861Z,96908.50
2023-04-03T18:59:34.588Z,96900.28
2023-04-03T19:02:02.457Z,96912.69
2023-04-03T19:04:31.288Z,96897.53
2023-04-03T19:06:59.242Z,96897.13
2023-04-03T19:09:27.339Z,96902.91
2023-04-03T19:11:55.133Z,96899.19
2023-04-03T19:14:24.405Z,96903.34
2023-04-03T19:16:52.217Z,96896.00
2023-04-03T19:19:20.479Z,96898.56
2023-04-03T19:21:48.604Z,96903.28
2023-04-03T19:24:16.398Z,96899.56
2023-04-03T19:26:44.340Z,96904.91
2023-04-03T19:29:12.733Z,96905.34
2023-04-03T19:31:41.926Z,96900.03
2023-04-03T19:34:09.820Z,96895.50
2023-04-03T19:36:38.920Z,96900.44
2023-04-03T19:39:07.659Z,96886.06
2023-04-03T19:41:37.079Z,96893.94
2023-04-03T19:44:07.478Z,96895.50
2023-04-03T19:46:36.577Z,96892.84
2023-04-03T19:49:06.111Z,96900.38
2023-04-03T19:51:33.885Z,96896.72
2023-04-03T19:54:01.730Z,96898.50
2023-04-03T19:56:29.609Z,96897.91
2023-04-03T19:58:57.763Z,96893.19
2023-04-03T20:01:26.990Z,96890.09
2023-04-03T20:03:54.894Z,96877.72
2023-04-03T20:06:24.224Z,96885.41
2023-04-03T20:08:52.016Z,96897.78
2023-04-03T20:11:19.812Z,96892.16
2023-04-03T20:13:50.180Z,96887.31
2023-04-03T20:16:18.207Z,96882.97
2023-04-03T20:18:47.411Z,96882.50
2023-04-03T20:21:15.263Z,96886.91
2023-04-03T20:23:45.024Z,96887.66
2023-04-03T20:26:23.664Z,96893.97
2023-04-03T20:28:52.368Z,96867.78
2023-04-03T20:31:20.240Z,96881.47
2023-04-03T20:33:48.748Z,96882.75
2023-04-03T20:36:16.847Z,96875.38
2023-04-03T20:38:46.178Z,96878.66
2023-04-03T20:41:14.425Z,96877.13
2023-04-03T20:43:43.237Z,96876.47
2023-04-03T20:46:14.010Z,96870.91
2023-04-03T20:48:42.120Z,96872.31
2023-04-03T20:51:11.141Z,96879.81
2023-04-03T20:53:39.373Z,96852.59
2023-04-03T20:56:09.177Z,96863.72
2023-04-03T20:58:39.795Z,96876.88
2023-04-03T21:01:15.924Z,96853.78
2023-04-03T21:03:43.870Z,96872.88
2023-04-03T21:06:49.686Z,96864.66
2023-04-03T21:09:54.637Z,96864.75
2023-04-03T21:13:00.322Z,96865.09
2023-04-03T21:15:56.042Z,96860.09
2023-04-03T21:18:48.268Z,96857.28
2023-04-03T21:21:22.299Z,96857.91
2023-04-03T21:23:51.167Z,96854.63
2023-04-03T21:26:19.266Z,96856.63
2023-04-03T21:28:47.368Z,96849.53
2023-04-03T21:31:15.331Z,96852.72
2023-04-03T21:33:45.210Z,96850.44
2023-04-03T21:36:13.251Z,96856.44
2023-04-03T21:38:41.350Z,96850.69
2023-04-03T21:41:09.608Z,96852.69
2023-04-03T21:43:37.382Z,96844.56
2023-04-03T21:46:05.896Z,96845.94
2023-04-03T21:48:34.441Z,96844.97
2023-04-03T21:51:07.752Z,96842.94
2023-04-03T21:53:36.506Z,96839.28
2023-04-03T21:56:04.334Z,96842.66
2023-04-03T21:58:32.752Z,96841.03
2023-04-03T22:01:10.565Z,96837.09
2023-04-03T22:03:38.464Z,96830.53
2023-04-03T22:06:08.096Z,96827.34
2023-04-03T22:08:36.196Z,96831.63
2023-04-03T22:11:05.102Z,96826.97
2023-04-03T22:13:32.991Z,96837.63
2023-04-03T22:16:01.852Z,96835.91
2023-04-03T22:18:29.863Z,96832.34
2023-04-03T22:20:57.669Z,96831.06
2023-04-03T22:23:27.282Z,96826.41
2023-04-03T22:25:59.269Z,96833.69
2023-04-03T22:28:28.096Z,96831.41
2023-04-03T22:30:56.326Z,96827.28
2023-04-03T22:33:24.710Z,96830.66
2023-04-03T22:35:52.860Z,96832.22
2023-04-03T22:38:20.689Z,96829.56
2023-04-03T22:40:57.373Z,96826.56
2023-04-03T22:43:25.207Z,96812.06
2023-04-03T22:45:52.938Z,96821.44
2023-04-03T22:48:20.825Z,96803.47
2023-04-03T22:50:49.032Z,96822.06
2023-04-03T22:53:16.876Z,96824.88
2023-04-03T22:55:44.722Z,96818.69
2023-04-03T22:58:13.868Z,96815.84
2023-04-03T23:00:42.087Z,96818.69
2023-04-03T23:03:13.033Z,96821.03
2023-04-03T23:05:41.195Z,96815.19
2023-04-03T23:08:09.246Z,96821.91
2023-04-03T23:10:37.144Z,96817.44
2023-04-03T23:13:05.204Z,96811.97
2023-04-03T23:15:34.399Z,96818.19
2023-04-03T23:18:02.274Z,96818.59
2023-04-03T23:20:30.200Z,96819.97
2023-04-03T23:22:58.281Z,96817.03
2023-04-03T23:25:26.600Z,96822.38
2023-04-03T23:27:54.852Z,96823.38
2023-04-03T23:30:22.795Z,96822.91
2023-04-03T23:32:51.926Z,96825.53
2023-04-03T23:35:19.682Z,96826.72
2023-04-03T23:37:47.401Z,96826.41
2023-04-03T23:40:15.490Z,96829.13
2023-04-03T23:42:43.511Z,96829.75
2023-04-03T23:45:11.731Z,96823.47
2023-04-03T23:47:39.601Z,96826.13
2023-04-03T23:50:10.247Z,96832.41
2023-04-03T23:52:38.318Z,96826.53
2023-04-03T23:55:07.342Z,96823.88
2023-04-03T23:57:35.472Z,96832.25
